La Aurora Airport Guatemala City US
ICAO: MGGT
IATA: GUA
Category: Medium
Scheduled Services: Yes

Elevation: 4952 ft
TransAlt. 18000 ft.

Airport Communications:
GUATEMALA RDO:126.9
CON:119.3
ATIS:126.5
CLNC DEL:120.7
GND:121.9
TWR:118.1

MGGT Zoom In..

If you have problems with the map follow the link
https://www.worldairports.se/pages/airport.php?
ICAO=MGGT

Runways:

(A) RW 01 length 9800 ft width 197 ft
ILS 110.10 / hdg 16

(B) RW 19 length 9800 ft width 197 ft
---- / hdg 196

Location; MGGT
Day. 14 / Time. 10.00 Zulu
* Altimeter: 30.30
* Temperature: 16° c. 60.8°f.
* Wind from: 020° Speed 10 kn.
Dewpoint: 15° c.
Visibility: 10 km or more.
Clouds: Few 400 ft.
Clouds: Broken 1400 ft.

MGGT 141000Z 02010KT 9999 FEW004 BKN014 16/15 Q1026 A3030


Wind From 020°
Speed 10 kn.

 
 
jpsmedia.com for Web Design worldairports.se 2018   terms of use